Time;durP1;ratioP1;P1;durP2;ratioP2;P2;SDS_P1;SDS_P2;PMS_P1;PMS_P2;Temp;Humidity;BMP_temperature;BMP_pressure;BME280_temperature;BME280_humidity;BME280_pressure;Samples;Min_cycle;Max_cycle;Signal;HPM_P1;HPM_P2
2022/11/11 00:00:10;;;;;;;9.38;3.90;;;;;;;7.66;73.71;98060.88;6215148;23;20016;-81
2022/11/11 00:02:40;;;;;;;11.25;4.70;;;;;;;7.67;73.44;98058.13;6215030;23;20021;-81
2022/11/11 00:05:09;;;;;;;9.60;4.65;;;;;;;7.64;73.70;98063.59;6215393;23;20070;-81
2022/11/11 00:07:37;;;;;;;15.05;4.63;;;;;;;7.63;73.68;98073.16;6215187;23;20403;-81
2022/11/11 00:10:07;;;;;;;7.68;3.78;;;;;;;7.65;73.78;98080.81;6215092;23;20012;-82
2022/11/11 00:12:36;;;;;;;18.63;4.20;;;;;;;7.63;74.04;98077.53;6215330;23;20520;-81
2022/11/11 00:15:05;;;;;;;11.07;5.38;;;;;;;7.63;73.93;98072.31;6215169;23;20092;-81
2022/11/11 00:26:07;;;;;;;9.50;5.07;;;;;;;7.75;75.45;98078.28;6219526;23;20017;-82
2022/11/11 00:28:55;;;;;;;10.27;6.20;;;;;;;7.80;75.02;98083.91;6215651;23;20020;-81
2022/11/11 00:31:24;;;;;;;11.27;6.25;;;;;;;7.83;74.45;98094.91;6215286;23;20040;-81
2022/11/11 00:33:53;;;;;;;9.98;5.75;;;;;;;7.81;74.60;98078.59;6215576;23;20035;-81
2022/11/11 00:36:22;;;;;;;7.85;5.78;;;;;;;7.87;76.60;98073.84;6215373;23;20020;-81
2022/11/11 00:38:54;;;;;;;10.55;6.72;;;;;;;7.95;76.60;98077.44;6215109;23;20027;-81
2022/11/11 00:41:26;;;;;;;11.30;6.45;;;;;;;8.00;76.01;98080.50;6215351;23;20023;-81
2022/11/11 00:43:55;;;;;;;10.27;6.30;;;;;;;8.02;76.07;98083.78;6215188;23;20016;-81
2022/11/11 00:51:56;;;;;;;15.07;7.28;;;;;;;7.89;73.08;98096.13;6215454;23;20095;-81
2022/11/11 00:54:24;;;;;;;9.77;6.13;;;;;;;7.86;73.12;98098.19;6215236;23;20028;-81
2022/11/11 00:56:53;;;;;;;13.50;7.18;;;;;;;7.88;75.17;98093.69;6215014;23;20016;-81
2022/11/11 00:59:22;;;;;;;8.48;6.65;;;;;;;7.88;73.42;98096.28;6215381;23;20021;-81
2022/11/11 01:01:50;;;;;;;11.23;6.90;;;;;;;7.84;75.01;98099.13;6215205;23;20040;-81
2022/11/11 01:04:19;;;;;;;15.02;8.07;;;;;;;7.89;76.58;98109.13;6215302;23;20016;-81
2022/11/11 01:06:47;;;;;;;9.45;7.30;;;;;;;7.89;74.27;98108.31;6215102;23;20025;-81
2022/11/11 01:09:17;;;;;;;10.63;7.20;;;;;;;7.77;72.44;98110.97;6215044;23;20091;-81
2022/11/11 01:11:46;;;;;;;9.13;6.03;;;;;;;7.68;72.44;98101.34;6215010;23;20025;-81
2022/11/11 01:14:14;;;;;;;9.02;5.97;;;;;;;7.66;73.42;98111.06;6216826;23;20016;-81
2022/11/11 01:16:43;;;;;;;10.82;5.97;;;;;;;7.64;73.86;98103.38;6216933;23;20475;-81
2022/11/11 01:19:11;;;;;;;6.40;5.40;;;;;;;7.70;76.31;98107.25;6216649;23;20052;-81
2022/11/11 01:21:40;;;;;;;9.85;5.13;;;;;;;7.79;75.86;98101.28;6217018;23;20448;-81
2022/11/11 01:24:08;;;;;;;10.80;5.28;;;;;;;7.78;73.86;98102.25;6216821;23;20452;-81
2022/11/11 01:26:37;;;;;;;7.85;5.32;;;;;;;7.68;72.10;98101.34;6216731;23;20020;-81
2022/11/11 01:29:05;;;;;;;7.75;4.70;;;;;;;7.61;72.94;98095.03;6216488;23;20476;-81
2022/11/11 01:31:34;;;;;;;8.45;5.45;;;;;;;7.69;76.51;98100.41;6216414;23;20352;-81
2022/11/11 01:34:02;;;;;;;9.70;6.38;;;;;;;7.83;78.46;98094.91;6216757;23;20099;-82
2022/11/11 01:36:31;;;;;;;6.65;5.88;;;;;;;7.91;78.73;98083.03;6216339;23;20016;-82
2022/11/11 01:39:01;;;;;;;8.48;5.72;;;;;;;7.86;77.02;98090.41;6216619;23;20017;-81
2022/11/11 01:41:35;;;;;;;8.38;5.95;;;;;;;7.72;73.79;98087.19;6216555;23;20357;-81
2022/11/11 01:44:19;;;;;;;8.95;5.70;;;;;;;7.58;71.73;98095.25;6217337;23;20087;-81
2022/11/11 01:46:51;;;;;;;9.00;5.25;;;;;;;7.52;75.09;98085.38;6216749;23;20052;-81
2022/11/11 01:49:28;;;;;;;8.82;5.68;;;;;;;7.59;78.30;98089.94;6216823;23;20023;-81
2022/11/11 01:52:05;;;;;;;7.10;4.97;;;;;;;7.54;73.20;98094.72;6216094;23;20103;-82
2022/11/11 01:54:38;;;;;;;9.10;5.10;;;;;;;7.43;72.58;98097.34;6216361;23;20017;-82
2022/11/11 01:57:12;;;;;;;8.70;4.18;;;;;;;7.40;73.61;98103.59;6216175;23;20024;-81
2022/11/11 01:59:46;;;;;;;7.97;5.40;;;;;;;7.41;74.72;98092.28;6216277;23;20023;-81
2022/11/11 02:02:20;;;;;;;11.70;5.50;;;;;;;7.42;74.22;98096.53;6216230;23;20020;-81
2022/11/11 02:07:37;;;;;;;10.48;4.88;;;;;;;7.47;75.02;98106.53;6215957;23;20550;-81
2022/11/11 02:10:08;;;;;;;6.35;4.38;;;;;;;7.51;75.65;98104.50;6216098;23;20047;-81
2022/11/11 02:15:24;;;;;;;8.23;6.07;;;;;;;7.55;73.83;98105.91;6216043;23;20016;-81
2022/11/11 02:17:52;;;;;;;6.65;4.53;;;;;;;7.60;74.71;98116.75;6215614;23;20020;-81
2022/11/11 02:20:25;;;;;;;6.53;4.68;;;;;;;7.57;73.32;98117.00;6215467;23;20036;-81
2022/11/11 02:22:58;;;;;;;6.03;4.70;;;;;;;7.61;76.70;98121.00;6216098;23;20052;-81
2022/11/11 02:25:31;;;;;;;7.55;4.60;;;;;;;7.59;74.14;98109.91;6214802;23;20028;-81
2022/11/11 02:28:03;;;;;;;9.88;4.57;;;;;;;7.56;73.52;98118.75;6214848;23;20055;-81
2022/11/11 02:30:32;;;;;;;7.80;4.20;;;;;;;7.56;74.33;98118.75;6216169;23;20325;-81
2022/11/11 02:33:00;;;;;;;7.47;4.78;;;;;;;7.60;75.61;98109.75;6215734;23;20095;-81
2022/11/11 02:35:32;;;;;;;8.10;4.95;;;;;;;7.64;75.07;98118.13;6215341;23;20656;-81
2022/11/11 02:38:06;;;;;;;8.82;4.45;;;;;;;7.61;75.06;98113.22;6215641;23;20020;-81
2022/11/11 02:41:55;;;;;;;9.90;5.10;;;;;;;7.62;74.28;98107.88;6215883;23;20016;-81
2022/11/11 02:43:27;;;;;;;7.50;4.22;;;;;;;7.61;73.84;98119.22;6215930;23;20021;-81
2022/11/11 02:45:56;;;;;;;8.88;4.72;;;;;;;7.60;73.44;98117.56;6215996;23;20040;-81
2022/11/11 02:48:25;;;;;;;10.65;4.93;;;;;;;7.61;73.32;98115.81;6215810;23;20027;-81
2022/11/11 02:50:53;;;;;;;7.18;4.50;;;;;;;7.58;73.25;98110.84;6216178;23;20107;-81
2022/11/11 02:53:22;;;;;;;11.70;6.22;;;;;;;7.51;72.98;98105.34;6216362;23;20048;-81
2022/11/11 02:55:52;;;;;;;12.30;5.13;;;;;;;7.47;73.23;98108.31;6216208;23;20449;-81
2022/11/11 02:58:20;;;;;;;7.78;4.82;;;;;;;7.48;73.14;98115.13;6215870;23;20016;-78
2022/11/11 03:00:48;;;;;;;8.52;4.88;;;;;;;7.41;72.80;98113.06;6216187;23;20047;-79
2022/11/11 03:03:16;;;;;;;5.88;4.40;;;;;;;7.43;74.18;98102.53;6216491;23;20024;-78
2022/11/11 03:05:44;;;;;;;10.02;4.50;;;;;;;7.46;73.40;98107.50;6216481;23;20028;-81
2022/11/11 03:08:12;;;;;;;5.90;4.47;;;;;;;7.52;74.47;98096.59;6216013;23;20024;-81
2022/11/11 03:13:08;;;;;;;8.82;4.90;;;;;;;7.60;74.02;98089.00;6213883;22;20348;-78
2022/11/11 03:15:36;;;;;;;6.80;4.03;;;;;;;7.59;73.66;98081.34;6215375;23;20067;-78
2022/11/11 03:18:03;;;;;;;6.45;4.32;;;;;;;7.57;74.19;98084.06;6227387;23;20070;-79
2022/11/11 03:23:16;;;;;;;9.32;5.30;;;;;;;7.64;74.79;98089.56;6208584;23;20055;-78
2022/11/11 03:25:46;;;;;;;8.57;4.90;;;;;;;7.64;73.86;98082.59;6189127;23;20028;-78
2022/11/11 03:28:16;;;;;;;5.00;3.97;;;;;;;7.62;73.49;98083.69;6187219;23;20100;-78
2022/11/11 03:30:45;;;;;;;9.38;4.00;;;;;;;7.59;73.45;98081.34;6186875;23;20021;-77
2022/11/11 03:33:14;;;;;;;9.65;4.38;;;;;;;7.59;73.89;98082.16;6186436;23;20013;-78
2022/11/11 03:35:42;;;;;;;7.90;4.78;;;;;;;7.60;74.14;98085.56;6185910;23;20100;-78
2022/11/11 03:38:23;;;;;;;5.65;4.60;;;;;;;7.64;75.90;98089.56;6185685;23;20052;-77
2022/11/11 03:40:52;;;;;;;6.60;4.45;;;;;;;7.68;75.03;98088.38;6185842;23;20052;-78
2022/11/11 03:43:23;;;;;;;8.20;4.95;;;;;;;7.70;76.31;98096.88;6185642;23;20025;-77
2022/11/11 03:45:51;;;;;;;13.65;5.57;;;;;;;7.73;75.01;98090.59;6186101;23;20021;-77
2022/11/11 03:48:19;;;;;;;7.38;4.63;;;;;;;7.71;75.89;98092.47;6185676;23;20027;-78
2022/11/11 03:50:47;;;;;;;8.80;4.75;;;;;;;7.69;75.33;98102.19;6185607;23;20021;-78
2022/11/11 03:53:15;;;;;;;7.72;4.75;;;;;;;7.60;73.49;98098.56;6185586;23;20044;-78
2022/11/11 03:55:43;;;;;;;8.02;4.57;;;;;;;7.59;75.66;98091.72;6185338;23;20025;-77
2022/11/11 03:58:10;;;;;;;5.82;4.50;;;;;;;7.63;77.35;98096.53;6184976;23;20634;-78
2022/11/11 04:00:39;;;;;;;6.28;4.45;;;;;;;7.59;75.72;98102.13;6185872;23;20020;-78
2022/11/11 04:11:29;;;;;;;9.30;5.00;;;;;;;7.47;76.06;98097.91;6185072;23;20023;-78
2022/11/11 04:16:47;;;;;;;7.22;4.70;;;;;;;7.39;74.90;98101.97;6185563;23;20031;-78
2022/11/11 04:22:00;;;;;;;6.45;4.90;;;;;;;7.31;74.55;98104.34;6186018;23;20025;-78
2022/11/11 04:27:15;;;;;;;7.45;4.65;;;;;;;7.27;74.00;98107.31;6185596;23;20017;-77
2022/11/11 04:29:42;;;;;;;5.32;4.60;;;;;;;7.19;73.51;98116.56;6185604;23;20099;-78
2022/11/11 04:34:59;;;;;;;6.75;4.88;;;;;;;7.18;76.24;98114.91;6185080;23;20108;-77
2022/11/11 04:37:30;;;;;;;8.70;5.13;;;;;;;7.21;74.49;98109.47;6185406;23;20028;-78
2022/11/11 04:42:43;;;;;;;7.57;4.90;;;;;;;7.09;76.03;98097.47;6185104;23;20021;-78
2022/11/11 04:48:01;;;;;;;7.45;4.65;;;;;;;7.14;75.98;98107.47;6186030;23;20023;-78
2022/11/11 04:50:30;;;;;;;7.45;4.53;;;;;;;7.07;74.16;98111.53;6186613;23;20052;-78
2022/11/11 04:52:58;;;;;;;7.47;5.32;;;;;;;7.01;74.00;98118.00;6186925;23;20021;-78
2022/11/11 04:58:12;;;;;;;9.23;5.90;;;;;;;7.04;76.50;98127.31;6186524;23;20021;-78
2022/11/11 05:00:39;;;;;;;7.28;5.38;;;;;;;6.99;75.61;98118.13;6186844;23;20021;-78
2022/11/11 05:03:15;;;;;;;9.13;6.25;;;;;;;7.05;78.36;98134.19;6186776;23;20020;-78
2022/11/11 05:11:17;;;;;;;7.53;4.72;;;;;;;6.93;77.08;98151.50;6186099;23;20017;-78
2022/11/11 05:22:11;;;;;;;9.02;4.65;;;;;;;6.89;74.44;98176.06;6187750;23;20043;-77
2022/11/11 05:27:24;;;;;;;5.93;4.70;;;;;;;6.81;76.66;98182.66;6183872;23;20352;-77
2022/11/11 05:29:52;;;;;;;7.00;4.45;;;;;;;6.88;77.67;98185.59;6186115;23;20021;-78
2022/11/11 05:32:22;;;;;;;6.47;4.80;;;;;;;6.85;74.89;98182.44;6185801;23;20031;-77
2022/11/11 05:34:51;;;;;;;7.25;5.35;;;;;;;6.76;73.04;98184.78;6186176;23;20032;-76
2022/11/11 05:37:19;;;;;;;6.88;4.57;;;;;;;6.76;74.57;98182.19;6186222;23;20457;-76
2022/11/11 05:39:46;;;;;;;6.45;4.55;;;;;;;6.72;74.08;98179.97;6186921;23;20032;-77
2022/11/11 05:42:14;;;;;;;10.07;5.10;;;;;;;6.67;73.79;98184.66;6186124;23;20025;-77
2022/11/11 05:44:42;;;;;;;6.45;4.57;;;;;;;6.72;76.37;98183.38;6186327;23;20032;-77
2022/11/11 05:47:10;;;;;;;9.45;5.15;;;;;;;6.84;76.13;98189.38;6186180;23;20028;-76
2022/11/11 05:49:37;;;;;;;6.38;4.30;;;;;;;6.91;77.36;98190.56;6185539;23;20021;-77
2022/11/11 05:52:07;;;;;;;7.65;5.18;;;;;;;6.89;75.40;98202.84;6185869;23;20025;-76
2022/11/11 05:54:35;;;;;;;8.43;5.55;;;;;;;6.84;74.28;98202.34;6186056;23;20025;-77
2022/11/11 05:57:03;;;;;;;8.93;5.10;;;;;;;6.89;75.65;98210.63;6185647;23;20051;-77
2022/11/11 05:59:31;;;;;;;6.50;4.80;;;;;;;7.02;77.97;98218.28;6199413;23;20021;-78
2022/11/11 06:01:58;;;;;;;6.43;4.75;;;;;;;7.08;78.02;98217.78;6207292;23;20035;-76
2022/11/11 06:04:26;;;;;;;10.07;5.28;;;;;;;7.15;79.03;98218.13;6198127;23;20560;-79
2022/11/11 06:06:54;;;;;;;17.73;6.07;;;;;;;7.13;76.47;98223.44;6188082;23;20356;-77
2022/11/11 06:09:23;;;;;;;7.90;5.47;;;;;;;7.09;76.81;98223.81;6186559;23;20021;-78
2022/11/11 06:11:52;;;;;;;8.45;5.68;;;;;;;7.11;78.75;98232.31;6186269;23;20045;-78
2022/11/11 06:14:19;;;;;;;6.57;5.03;;;;;;;7.19;79.98;98232.50;6186371;23;20021;-79
2022/11/11 06:16:50;;;;;;;6.50;5.05;;;;;;;7.19;77.56;98241.13;6187163;23;20356;-78
2022/11/11 06:19:18;;;;;;;8.98;5.05;;;;;;;7.17;77.37;98244.78;6186387;23;20024;-78
2022/11/11 06:21:59;;;;;;;6.78;5.18;;;;;;;7.20;78.84;98241.97;6186343;23;20485;-78
2022/11/11 06:24:28;;;;;;;10.13;4.57;;;;;;;7.17;77.56;98245.63;6187923;23;20025;-79
2022/11/11 06:26:56;;;;;;;6.18;5.22;;;;;;;7.16;78.25;98248.31;6195000;23;20033;-80
2022/11/11 06:29:24;;;;;;;11.65;6.07;;;;;;;7.16;78.98;98243.97;6210709;23;20047;-79
2022/11/11 06:31:52;;;;;;;23.98;7.72;;;;;;;7.17;78.58;98242.19;6210944;23;20515;-80
2022/11/11 06:34:19;;;;;;;28.80;8.00;;;;;;;7.21;78.84;98248.78;6210094;23;20036;-79
2022/11/11 06:36:47;;;;;;;22.70;7.50;;;;;;;7.20;77.85;98247.16;6210025;23;20053;-80
2022/11/11 06:39:14;;;;;;;20.33;7.18;;;;;;;7.17;78.32;98239.59;6210073;23;20081;-80
2022/11/11 06:41:44;;;;;;;20.88;6.97;;;;;;;7.16;78.19;98250.91;6194302;23;20021;-79
2022/11/11 06:44:11;;;;;;;19.38;6.72;;;;;;;7.18;77.78;98249.03;6188817;23;20096;-80
2022/11/11 06:46:39;;;;;;;18.85;6.25;;;;;;;7.21;77.86;98244.44;6188229;23;20017;-79
2022/11/11 06:49:06;;;;;;;14.23;6.88;;;;;;;7.26;78.26;98254.47;6187097;23;20020;-79
2022/11/11 06:51:34;;;;;;;10.35;5.13;;;;;;;7.26;76.39;98256.22;6186604;23;20023;-79
2022/11/11 06:54:02;;;;;;;11.25;5.88;;;;;;;7.26;77.49;98262.25;6186793;23;20095;-79
2022/11/11 06:56:30;;;;;;;10.55;5.70;;;;;;;7.31;77.67;98260.09;6186526;23;20013;-79
2022/11/11 06:58:59;;;;;;;11.68;6.25;;;;;;;7.34;77.16;98257.25;6186488;23;20040;-79
2022/11/11 07:01:27;;;;;;;12.38;6.75;;;;;;;7.35;77.16;98264.13;6187176;23;20028;-80
2022/11/11 07:03:55;;;;;;;17.23;7.90;;;;;;;7.30;74.80;98263.63;6204057;23;20017;-80
2022/11/11 07:06:23;;;;;;;19.70;7.68;;;;;;;7.24;75.25;98258.94;6211358;23;20009;-80
2022/11/11 07:08:50;;;;;;;16.02;7.75;;;;;;;7.24;75.27;98258.94;6209253;23;20020;-81
2022/11/11 07:11:18;;;;;;;17.95;8.35;;;;;;;7.23;74.39;98257.28;6193487;23;20017;-80
2022/11/11 07:13:46;;;;;;;17.52;8.00;;;;;;;7.25;75.22;98255.38;6194684;23;20101;-79
2022/11/11 07:16:15;;;;;;;16.75;6.85;;;;;;;7.26;73.95;98264.84;6192364;23;20045;-80
2022/11/11 07:18:43;;;;;;;17.27;8.07;;;;;;;7.25;73.85;98260.59;6192386;23;20076;-79
2022/11/11 07:21:11;;;;;;;18.20;7.97;;;;;;;7.30;74.94;98261.03;6192967;23;20100;-79
2022/11/11 07:23:39;;;;;;;20.27;8.05;;;;;;;7.38;75.36;98260.44;6192390;23;20044;-79
2022/11/11 07:26:07;;;;;;;10.82;7.43;;;;;;;7.50;76.38;98259.50;6192252;23;20068;-80
2022/11/11 07:28:34;;;;;;;20.65;8.30;;;;;;;7.57;74.64;98258.06;6191845;23;20032;-80
2022/11/11 07:31:02;;;;;;;17.50;7.43;;;;;;;7.63;74.78;98264.50;6191854;23;20017;-80
2022/11/11 07:33:31;;;;;;;15.68;8.05;;;;;;;7.70;74.14;98260.50;6187246;23;20021;-80
2022/11/11 07:35:59;;;;;;;18.40;6.80;;;;;;;7.76;73.93;98270.41;6186214;23;20036;-80
2022/11/11 07:38:26;;;;;;;14.50;7.63;;;;;;;7.76;73.14;98264.38;6186059;23;20036;-79
2022/11/11 07:40:54;;;;;;;18.17;8.07;;;;;;;7.78;73.54;98263.31;6186495;23;20519;-80
2022/11/11 07:43:23;;;;;;;15.15;7.68;;;;;;;7.86;73.36;98264.47;6186972;23;20044;-80
2022/11/11 07:45:51;;;;;;;19.10;8.25;;;;;;;7.90;72.79;98261.50;6186648;23;20344;-80
2022/11/11 07:48:19;;;;;;;16.35;8.85;;;;;;;8.00;74.09;98256.34;6186136;23;20469;-79
2022/11/11 07:50:48;;;;;;;19.55;8.13;;;;;;;8.12;73.37;98255.38;6191445;23;20361;-80
2022/11/11 07:53:16;;;;;;;22.05;8.73;;;;;;;8.21;73.13;98254.59;6191564;23;20104;-80
2022/11/11 07:55:45;;;;;;;18.73;8.40;;;;;;;8.36;73.71;98254.31;6191879;23;20021;-81
2022/11/11 07:58:13;;;;;;;23.67;8.55;;;;;;;8.46;72.83;98255.22;6191811;23;20024;-80
2022/11/11 08:00:41;;;;;;;18.83;8.13;;;;;;;8.53;72.82;98243.38;6191002;23;20044;-80
2022/11/11 08:03:08;;;;;;;15.85;8.32;;;;;;;8.65;74.12;98242.31;6191622;23;20027;-80
2022/11/11 08:05:36;;;;;;;13.82;7.70;;;;;;;8.71;73.28;98242.78;6191824;23;20017;-80
2022/11/11 08:08:07;;;;;;;17.45;8.48;;;;;;;8.78;72.71;98242.09;6190948;23;20081;-80
2022/11/11 08:10:36;;;;;;;20.10;8.68;;;;;;;8.84;72.20;98246.81;6191117;23;20027;-80
2022/11/11 08:15:58;;;;;;;19.58;8.60;;;;;;;8.94;72.08;98251.22;6138216;23;20017;-80
2022/11/11 08:18:26;;;;;;;15.57;8.05;;;;;;;9.05;71.69;98240.72;6191069;23;20073;-80
2022/11/11 08:20:54;;;;;;;18.23;8.15;;;;;;;9.20;73.23;98246.38;6189793;23;20557;-80
2022/11/11 08:23:31;;;;;;;13.93;7.80;;;;;;;9.33;72.04;98241.75;6191959;23;20017;-80
2022/11/11 08:26:21;;;;;;;16.17;8.52;;;;;;;9.38;70.78;98246.56;6193316;23;20140;-80
2022/11/11 08:28:56;;;;;;;15.63;8.15;;;;;;;9.46;71.77;98252.75;6193036;23;20044;-80
2022/11/11 08:31:25;;;;;;;24.05;9.48;;;;;;;9.61;72.53;98252.38;6193109;23;20046;-81
2022/11/11 08:33:53;;;;;;;20.25;9.75;;;;;;;9.70;71.06;98248.94;6189485;23;20017;-81
2022/11/11 08:36:23;;;;;;;15.60;8.65;;;;;;;9.75;70.21;98259.81;6188434;23;20406;-80
2022/11/11 08:38:53;;;;;;;20.38;9.38;;;;;;;9.78;70.78;98263.94;6188070;23;20017;-80
2022/11/11 08:41:22;;;;;;;16.65;8.52;;;;;;;9.86;70.38;98256.22;6188050;23;20028;-81
2022/11/11 08:43:54;;;;;;;18.48;8.95;;;;;;;9.99;70.39;98248.13;6188454;23;20485;-80
2022/11/11 08:46:24;;;;;;;15.77;8.90;;;;;;;10.12;70.79;98253.91;6188423;23;20017;-81
2022/11/11 08:48:52;;;;;;;21.38;8.75;;;;;;;10.27;70.88;98260.34;6187715;23;20024;-80
2022/11/11 08:51:20;;;;;;;13.73;8.25;;;;;;;10.43;70.86;98265.03;6188365;23;20107;-80
2022/11/11 08:53:48;;;;;;;16.40;8.60;;;;;;;10.63;69.71;98258.00;6188800;23;20080;-80
2022/11/11 08:56:18;;;;;;;13.02;8.25;;;;;;;10.99;69.09;98257.31;6188181;23;20017;-80
2022/11/11 08:58:46;;;;;;;13.75;8.65;;;;;;;11.58;68.89;98252.63;6188011;23;20043;-80
2022/11/11 09:01:15;;;;;;;16.77;10.07;;;;;;;13.20;63.80;98257.44;6188450;23;20013;-81
2022/11/11 09:03:45;;;;;;;18.55;9.73;;;;;;;15.41;56.65;98254.00;6189219;23;20021;-80
2022/11/11 09:06:13;;;;;;;18.83;9.15;;;;;;;17.19;51.41;98264.28;6189226;23;20032;-80
2022/11/11 09:08:43;;;;;;;16.30;9.25;;;;;;;17.99;47.88;98254.63;6188696;23;20048;-80
2022/11/11 09:11:13;;;;;;;25.67;9.80;;;;;;;18.07;48.10;98256.34;6193086;23;20028;-80
2022/11/11 09:13:56;;;;;;;17.38;8.40;;;;;;;19.01;46.68;98253.41;6216138;23;20368;-76
2022/11/11 09:16:24;;;;;;;17.88;8.77;;;;;;;20.05;43.96;98256.84;6215631;23;20025;-76
2022/11/11 09:18:51;;;;;;;16.27;10.15;;;;;;;20.80;41.56;98260.16;6224032;23;20066;-76
2022/11/11 09:21:19;;;;;;;17.95;9.32;;;;;;;20.69;41.47;98261.59;6228403;23;20020;-76
2022/11/11 09:23:46;;;;;;;13.75;8.43;;;;;;;20.95;41.78;98255.41;6219138;23;20079;-75
2022/11/11 09:26:14;;;;;;;13.45;7.70;;;;;;;21.53;40.49;98264.44;6215728;23;20403;-75
2022/11/11 09:28:41;;;;;;;12.60;8.45;;;;;;;21.91;39.52;98258.31;6215472;23;20028;-76
2022/11/11 09:31:14;;;;;;;14.30;7.65;;;;;;;21.63;40.15;98261.34;6216045;23;20095;-76
2022/11/11 09:34:01;;;;;;;15.15;7.15;;;;;;;21.24;41.46;98258.59;6215149;23;20021;-75
2022/11/11 09:36:29;;;;;;;14.43;6.85;;;;;;;20.86;41.52;98256.66;6215925;23;20020;-76
2022/11/11 09:38:56;;;;;;;18.13;7.00;;;;;;;20.80;42.18;98256.69;6215208;23;20018;-76
2022/11/11 09:41:31;;;;;;;11.15;6.78;;;;;;;21.05;41.05;98259.47;6215801;23;20425;-76
2022/11/11 09:44:00;;;;;;;14.13;6.93;;;;;;;21.32;40.65;98260.22;6215466;23;20464;-75
2022/11/11 09:46:39;;;;;;;9.90;6.18;;;;;;;21.37;41.91;98263.06;6215907;23;20025;-75
2022/11/11 09:49:22;;;;;;;8.80;5.95;;;;;;;;;;6216029;23;20107;-76
2022/11/11 09:51:56;;;;;;;10.48;6.40;;;;;;;22.61;38.64;98258.25;6215684;23;20032;-76
2022/11/11 09:54:34;;;;;;;9.27;6.90;;;;;;;23.21;38.58;98255.78;6215597;23;20051;-76
2022/11/11 09:57:05;;;;;;;10.82;6.50;;;;;;;23.59;37.24;98267.22;6215660;23;20091;-76
2022/11/11 09:59:41;;;;;;;9.07;6.22;;;;;;;23.95;36.67;98262.88;6214588;23;20460;-77
2022/11/11 10:02:18;;;;;;;9.07;6.50;;;;;;;24.43;38.02;98275.28;6214941;23;20464;-76
2022/11/11 10:04:54;;;;;;;9.95;7.28;;;;;;;24.66;34.24;98264.66;6215325;23;20476;-76
2022/11/11 10:07:28;;;;;;;13.30;6.50;;;;;;;24.62;35.50;98263.50;6215424;23;20020;-76
2022/11/11 10:10:03;;;;;;;11.40;5.32;;;;;;;24.52;35.85;98265.91;6214944;23;20020;-76
2022/11/11 10:12:39;;;;;;;12.57;5.82;;;;;;;24.55;35.51;98265.44;6214812;23;20024;-76
2022/11/11 10:15:13;;;;;;;8.55;4.70;;;;;;;24.81;33.91;98268.72;6215261;23;20021;-77
2022/11/11 10:17:51;;;;;;;10.38;4.85;;;;;;;25.21;33.72;98268.81;6214750;23;20500;-77
2022/11/11 10:20:23;;;;;;;4.72;3.22;;;;;;;25.79;32.14;98267.00;6215132;23;20021;-77
2022/11/11 10:22:56;;;;;;;3.85;2.10;;;;;;;26.23;31.70;98256.56;6215221;23;20063;-77
2022/11/11 10:25:25;;;;;;;5.97;2.78;;;;;;;26.36;31.82;98249.28;6215198;23;20026;-77
2022/11/11 10:27:56;;;;;;;3.35;1.40;;;;;;;26.27;30.44;98251.53;6214677;23;20016;-76
2022/11/11 10:30:26;;;;;;;2.47;1.50;;;;;;;25.70;31.63;98247.06;6214687;23;20025;-76
2022/11/11 10:33:02;;;;;;;2.13;1.50;;;;;;;25.13;32.08;98244.31;6215098;23;20020;-77
2022/11/11 10:35:32;;;;;;;1.73;1.40;;;;;;;25.07;32.37;98246.84;6215248;23;20043;-77
2022/11/11 10:38:13;;;;;;;3.25;1.40;;;;;;;24.87;31.85;98243.75;6215182;23;20384;-77
2022/11/11 10:40:46;;;;;;;1.45;1.30;;;;;;;24.55;32.51;98238.75;6215178;23;20028;-77
2022/11/11 10:43:21;;;;;;;1.83;1.08;;;;;;;24.30;33.05;98232.81;6215370;23;20027;-77
2022/11/11 10:45:59;;;;;;;4.00;1.05;;;;;;;23.92;33.29;98229.50;6214914;23;20112;-77
2022/11/11 10:48:41;;;;;;;5.03;1.60;;;;;;;23.89;33.54;98226.47;6214828;23;20025;-77
2022/11/11 10:51:12;;;;;;;1.85;1.13;;;;;;;24.13;33.71;98224.69;6215405;23;20032;-77
2022/11/11 10:53:46;;;;;;;3.88;2.05;;;;;;;24.30;32.85;98222.16;6214852;23;20020;-77
2022/11/11 10:56:21;;;;;;;4.35;3.95;;;;;;;24.15;32.98;98220.72;6214774;23;20024;-77
2022/11/11 10:58:54;;;;;;;2.90;1.95;;;;;;;23.90;33.54;98215.59;6214813;23;20021;-77
2022/11/11 11:01:29;;;;;;;3.85;2.30;;;;;;;23.52;34.29;98222.03;6215002;23;20027;-77
2022/11/11 11:04:04;;;;;;;2.33;1.98;;;;;;;23.14;35.25;98214.34;6214830;23;20024;-77
2022/11/11 11:06:37;;;;;;;3.25;2.28;;;;;;;22.94;35.59;98225.19;6215008;23;20020;-77
2022/11/11 11:09:12;;;;;;;3.80;2.38;;;;;;;22.67;35.82;98224.63;6214921;23;20058;-77
2022/11/11 11:11:44;;;;;;;3.40;2.13;;;;;;;22.77;36.17;98230.25;6215011;23;20031;-77
2022/11/11 11:14:17;;;;;;;4.32;1.77;;;;;;;23.41;34.85;98230.78;6214513;23;20020;-77
2022/11/11 11:16:49;;;;;;;3.28;1.52;;;;;;;23.80;33.52;98228.66;6214468;23;20020;-75
2022/11/11 11:19:20;;;;;;;3.22;1.85;;;;;;;23.99;32.85;98230.22;6214403;23;20096;-77
2022/11/11 11:21:52;;;;;;;5.03;1.48;;;;;;;24.00;33.10;98233.69;6214808;23;20043;-77
2022/11/11 11:24:22;;;;;;;1.88;1.10;;;;;;;23.85;33.80;98228.78;6214886;23;20028;-76
2022/11/11 11:26:52;;;;;;;3.50;1.10;;;;;;;23.80;33.35;98224.13;6214359;23;20031;-77
2022/11/11 11:29:29;;;;;;;1.88;0.82;;;;;;;23.98;32.89;98223.25;6214631;23;20028;-77
2022/11/11 11:32:09;;;;;;;1.38;1.00;;;;;;;24.18;33.59;98217.63;6214972;23;20333;-77
2022/11/11 11:34:46;;;;;;;1.20;0.77;;;;;;;24.24;32.00;98221.22;6215035;23;20027;-75
2022/11/11 11:37:14;;;;;;;3.70;1.00;;;;;;;23.78;32.97;98220.06;6214115;23;20528;-76
2022/11/11 11:39:42;;;;;;;1.75;1.15;;;;;;;23.38;33.25;98223.25;6214357;23;20020;-77
2022/11/11 11:42:26;;;;;;;1.35;0.90;;;;;;;23.36;33.18;98223.47;6225411;23;20032;-77
2022/11/11 11:44:54;;;;;;;1.70;0.70;;;;;;;23.60;32.80;98228.91;6220807;23;20031;-77
2022/11/11 11:47:40;;;;;;;1.10;0.73;;;;;;;24.00;32.04;98223.03;6218158;23;20035;-77
2022/11/11 11:50:22;;;;;;;1.13;0.82;;;;;;;24.24;31.29;98215.88;6214859;23;20055;-77
2022/11/11 11:53:01;;;;;;;1.33;0.60;;;;;;;24.01;31.81;98214.00;6214812;23;20208;-77
2022/11/11 11:55:34;;;;;;;0.60;0.60;;;;;;;24.05;31.75;98217.81;6214800;23;20027;-77
2022/11/11 11:58:20;;;;;;;0.80;0.50;;;;;;;24.61;31.34;98213.84;6214055;23;20075;-77
2022/11/11 12:01:01;;;;;;;1.02;0.63;;;;;;;24.99;30.17;98215.19;6214389;23;20052;-77
2022/11/11 12:03:55;;;;;;;0.90;0.80;;;;;;;24.73;30.40;98216.50;6214531;23;20023;-77
2022/11/11 12:06:35;;;;;;;2.05;0.80;;;;;;;23.96;31.75;98216.53;6215072;23;20031;-77
2022/11/11 12:09:13;;;;;;;1.45;1.00;;;;;;;23.12;32.66;98217.22;6214386;23;20021;-77
2022/11/11 12:11:49;;;;;;;4.22;1.33;;;;;;;22.26;34.09;98210.03;6214370;23;20442;-77
2022/11/11 12:14:51;;;;;;;1.48;0.85;;;;;;;21.60;35.57;98223.56;6214578;23;20020;-77
2022/11/11 12:17:30;;;;;;;1.98;1.08;;;;;;;21.18;36.87;98211.66;6214585;23;20020;-77
2022/11/11 12:20:09;;;;;;;1.13;0.90;;;;;;;20.90;37.02;98199.53;6213818;23;20017;-77
2022/11/11 12:22:56;;;;;;;10.65;1.38;;;;;;;20.62;37.69;98206.91;6215346;23;20329;-77
2022/11/11 12:25:39;;;;;;;3.90;1.27;;;;;;;20.38;38.05;98203.88;6214064;23;20024;-77
2022/11/11 12:28:19;;;;;;;1.42;0.95;;;;;;;20.15;39.35;98191.03;6214159;23;20028;-77
2022/11/11 12:30:51;;;;;;;2.85;1.60;;;;;;;19.94;39.24;98184.09;6214636;23;20016;-77
2022/11/11 12:33:45;;;;;;;2.58;1.45;;;;;;;19.63;39.70;98188.09;6214394;23;20021;-77
2022/11/11 12:36:21;;;;;;;1.33;0.93;;;;;;;19.37;40.58;98182.75;6214510;23;20337;-77
2022/11/11 12:38:58;;;;;;;2.05;1.20;;;;;;;19.15;41.18;98180.22;6214002;23;20028;-77
2022/11/11 12:41:35;;;;;;;4.07;1.30;;;;;;;18.93;42.16;98183.00;6214003;23;20027;-77
2022/11/11 12:44:05;;;;;;;2.42;1.20;;;;;;;18.73;41.95;98176.75;6214320;23;20027;-77
2022/11/11 12:46:44;;;;;;;5.43;1.80;;;;;;;18.48;42.36;98179.88;6214345;23;20039;-76
2022/11/11 12:49:33;;;;;;;3.67;2.25;;;;;;;18.32;42.77;98172.22;6214368;23;20020;-76
2022/11/11 12:52:14;;;;;;;3.45;1.83;;;;;;;18.19;43.00;98180.06;6213833;23;20021;-76
2022/11/11 12:54:56;;;;;;;4.15;2.08;;;;;;;18.03;44.00;98171.41;6214389;23;20027;-76
2022/11/11 12:57:33;;;;;;;3.95;2.13;;;;;;;17.99;44.54;98167.50;6214544;23;20021;-76
2022/11/11 13:00:09;;;;;;;4.30;2.13;;;;;;;18.01;44.52;98168.13;6214038;23;20020;-76
2022/11/11 13:03:17;;;;;;;2.53;1.88;;;;;;;17.92;44.69;98171.91;6214684;23;20016;-77
2022/11/11 13:05:56;;;;;;;6.70;2.88;;;;;;;17.77;44.91;98177.22;6191658;23;20487;-76
2022/11/11 13:08:50;;;;;;;5.20;2.53;;;;;;;17.62;44.84;98177.31;6214375;23;20024;-76